sensor_id;sensor_type;location;lat;lon;timestamp;noise_LAeq;noise_LA_min;noise_LA_max;noise_LA01;noise_LA95
74260;Laerm;62630;55.874;37.516;2023-04-24T00:02:02;51.91;46.01;64.12;;
74260;Laerm;62630;55.874;37.516;2023-04-24T00:04:29;49.43;45.68;54.27;;
74260;Laerm;62630;55.874;37.516;2023-04-24T00:06:55;49.65;45.39;60.28;;
74260;Laerm;62630;55.874;37.516;2023-04-24T00:09:22;49.36;45.52;54.56;;
74260;Laerm;62630;55.874;37.516;2023-04-24T00:11:48;48.55;44.45;59.09;;
74260;Laerm;62630;55.874;37.516;2023-04-24T00:14:14;53.55;46.21;65.94;;
74260;Laerm;62630;55.874;37.516;2023-04-24T00:16:39;50.44;45.87;56.03;;
74260;Laerm;62630;55.874;37.516;2023-04-24T00:19:05;52.37;46.17;64.64;;
74260;Laerm;62630;55.874;37.516;2023-04-24T00:21:32;51.17;47.16;62.33;;
74260;Laerm;62630;55.874;37.516;2023-04-24T00:23:58;55.21;47.10;65.84;;
74260;Laerm;62630;55.874;37.516;2023-04-24T00:26:23;50.74;47.18;54.95;;
74260;Laerm;62630;55.874;37.516;2023-04-24T00:28:49;61.99;47.44;77.40;;
74260;Laerm;62630;55.874;37.516;2023-04-24T00:31:15;55.67;45.53;67.35;;
74260;Laerm;62630;55.874;37.516;2023-04-24T00:33:40;56.72;46.74;69.19;;
74260;Laerm;62630;55.874;37.516;2023-04-24T00:36:06;50.36;46.18;56.33;;
74260;Laerm;62630;55.874;37.516;2023-04-24T00:38:59;49.66;46.19;53.66;;
74260;Laerm;62630;55.874;37.516;2023-04-24T00:41:25;49.56;45.43;55.52;;
74260;Laerm;62630;55.874;37.516;2023-04-24T00:44:14;51.67;46.91;60.18;;
74260;Laerm;62630;55.874;37.516;2023-04-24T00:46:40;52.29;45.58;65.90;;
74260;Laerm;62630;55.874;37.516;2023-04-24T00:49:06;50.27;45.79;61.63;;
74260;Laerm;62630;55.874;37.516;2023-04-24T00:51:32;49.65;45.61;54.17;;
74260;Laerm;62630;55.874;37.516;2023-04-24T00:56:51;53.80;47.47;74.29;;
74260;Laerm;62630;55.874;37.516;2023-04-24T00:59:16;51.05;46.24;58.99;;
74260;Laerm;62630;55.874;37.516;2023-04-24T01:01:43;57.32;46.14;66.22;;
74260;Laerm;62630;55.874;37.516;2023-04-24T01:04:11;54.16;47.26;65.33;;
74260;Laerm;62630;55.874;37.516;2023-04-24T01:06:39;61.90;46.29;80.38;;
74260;Laerm;62630;55.874;37.516;2023-04-24T01:09:05;55.16;46.54;67.71;;
74260;Laerm;62630;55.874;37.516;2023-04-24T01:11:31;60.63;46.92;76.80;;
74260;Laerm;62630;55.874;37.516;2023-04-24T01:13:57;55.93;47.08;66.91;;
74260;Laerm;62630;55.874;37.516;2023-04-24T01:16:24;49.40;45.26;53.83;;
74260;Laerm;62630;55.874;37.516;2023-04-24T01:18:50;50.25;46.76;54.44;;
74260;Laerm;62630;55.874;37.516;2023-04-24T01:21:17;49.86;45.61;54.51;;
74260;Laerm;62630;55.874;37.516;2023-04-24T01:23:44;50.23;46.25;57.71;;
74260;Laerm;62630;55.874;37.516;2023-04-24T01:26:10;62.78;45.72;77.43;;
74260;Laerm;62630;55.874;37.516;2023-04-24T01:28:35;50.86;46.08;57.06;;
74260;Laerm;62630;55.874;37.516;2023-04-24T01:31:01;55.19;46.98;70.96;;
74260;Laerm;62630;55.874;37.516;2023-04-24T01:42:36;56.21;49.03;73.07;;
74260;Laerm;62630;55.874;37.516;2023-04-24T01:45:04;54.92;48.21;62.51;;
74260;Laerm;62630;55.874;37.516;2023-04-24T01:47:31;54.56;48.21;65.73;;
74260;Laerm;62630;55.874;37.516;2023-04-24T01:49:57;60.02;47.80;82.65;;
74260;Laerm;62630;55.874;37.516;2023-04-24T01:52:22;51.50;47.44;57.60;;
74260;Laerm;62630;55.874;37.516;2023-04-24T01:54:48;52.53;48.08;59.78;;
74260;Laerm;62630;55.874;37.516;2023-04-24T01:57:14;59.62;48.00;71.59;;
74260;Laerm;62630;55.874;37.516;2023-04-24T01:59:41;55.31;49.39;64.87;;
74260;Laerm;62630;55.874;37.516;2023-04-24T02:02:07;66.31;51.05;76.44;;
74260;Laerm;62630;55.874;37.516;2023-04-24T02:04:32;57.94;49.09;68.18;;
74260;Laerm;62630;55.874;37.516;2023-04-24T02:06:58;58.13;49.61;66.62;;
74260;Laerm;62630;55.874;37.516;2023-04-24T02:09:24;57.78;49.03;73.97;;
74260;Laerm;62630;55.874;37.516;2023-04-24T02:11:50;63.73;49.76;74.23;;
74260;Laerm;62630;55.874;37.516;2023-04-24T02:14:15;57.35;48.55;70.29;;
74260;Laerm;62630;55.874;37.516;2023-04-24T02:16:41;56.41;48.19;69.86;;
74260;Laerm;62630;55.874;37.516;2023-04-24T02:19:07;60.17;50.06;81.03;;
74260;Laerm;62630;55.874;37.516;2023-04-24T02:21:33;59.33;49.76;69.21;;
74260;Laerm;62630;55.874;37.516;2023-04-24T02:23:59;56.64;48.74;74.93;;
74260;Laerm;62630;55.874;37.516;2023-04-24T02:26:24;59.86;48.74;75.98;;
74260;Laerm;62630;55.874;37.516;2023-04-24T02:28:50;65.11;48.47;80.26;;
74260;Laerm;62630;55.874;37.516;2023-04-24T02:31:16;59.87;49.51;72.92;;
74260;Laerm;62630;55.874;37.516;2023-04-24T02:33:41;57.76;50.25;69.00;;
74260;Laerm;62630;55.874;37.516;2023-04-24T02:36:07;59.57;50.07;72.01;;
74260;Laerm;62630;55.874;37.516;2023-04-24T02:38:32;57.42;51.20;65.10;;
74260;Laerm;62630;55.874;37.516;2023-04-24T02:40:58;62.66;52.47;74.40;;
74260;Laerm;62630;55.874;37.516;2023-04-24T02:43:24;63.47;51.61;78.02;;
74260;Laerm;62630;55.874;37.516;2023-04-24T02:45:49;64.58;52.26;75.59;;
74260;Laerm;62630;55.874;37.516;2023-04-24T02:48:15;60.44;50.79;83.77;;
74260;Laerm;62630;55.874;37.516;2023-04-24T02:50:42;62.42;50.46;75.25;;
74260;Laerm;62630;55.874;37.516;2023-04-24T02:53:08;61.43;50.83;72.25;;
74260;Laerm;62630;55.874;37.516;2023-04-24T02:55:34;63.40;51.87;79.87;;
74260;Laerm;62630;55.874;37.516;2023-04-24T02:57:59;58.66;51.67;70.77;;
74260;Laerm;62630;55.874;37.516;2023-04-24T03:00:25;55.72;50.38;68.48;;
74260;Laerm;62630;55.874;37.516;2023-04-24T03:02:51;57.47;49.92;72.88;;
74260;Laerm;62630;55.874;37.516;2023-04-24T03:05:16;59.86;50.65;71.13;;
74260;Laerm;62630;55.874;37.516;2023-04-24T03:07:42;60.81;50.58;72.29;;
74260;Laerm;62630;55.874;37.516;2023-04-24T03:10:10;59.61;50.81;78.62;;
74260;Laerm;62630;55.874;37.516;2023-04-24T03:12:35;60.26;51.88;69.79;;
74260;Laerm;62630;55.874;37.516;2023-04-24T03:15:01;59.76;51.14;74.23;;
74260;Laerm;62630;55.874;37.516;2023-04-24T03:17:26;63.90;50.56;86.52;;
74260;Laerm;62630;55.874;37.516;2023-04-24T03:19:52;63.75;53.04;79.95;;
74260;Laerm;62630;55.874;37.516;2023-04-24T03:22:18;64.97;52.62;75.61;;
74260;Laerm;62630;55.874;37.516;2023-04-24T03:24:43;60.39;52.43;68.79;;
74260;Laerm;62630;55.874;37.516;2023-04-24T03:27:08;61.29;52.36;73.09;;
74260;Laerm;62630;55.874;37.516;2023-04-24T03:29:34;63.03;52.71;71.80;;
74260;Laerm;62630;55.874;37.516;2023-04-24T03:32:00;61.01;51.93;76.93;;
74260;Laerm;62630;55.874;37.516;2023-04-24T03:34:25;62.98;53.40;75.90;;
74260;Laerm;62630;55.874;37.516;2023-04-24T03:36:51;62.93;54.91;69.80;;
74260;Laerm;62630;55.874;37.516;2023-04-24T03:39:18;59.87;52.69;68.87;;
74260;Laerm;62630;55.874;37.516;2023-04-24T03:41:43;60.98;53.58;71.87;;
74260;Laerm;62630;55.874;37.516;2023-04-24T03:44:09;62.15;53.76;71.17;;
74260;Laerm;62630;55.874;37.516;2023-04-24T03:46:34;64.03;55.40;83.25;;
74260;Laerm;62630;55.874;37.516;2023-04-24T03:49:00;64.05;54.63;76.77;;
74260;Laerm;62630;55.874;37.516;2023-04-24T03:51:26;64.59;55.16;75.53;;
74260;Laerm;62630;55.874;37.516;2023-04-24T03:53:53;61.83;55.70;71.50;;
74260;Laerm;62630;55.874;37.516;2023-04-24T03:56:19;63.53;54.74;72.95;;
74260;Laerm;62630;55.874;37.516;2023-04-24T03:58:45;67.54;53.85;81.97;;
74260;Laerm;62630;55.874;37.516;2023-04-24T04:01:10;63.63;53.48;73.21;;
74260;Laerm;62630;55.874;37.516;2023-04-24T04:03:37;62.98;51.71;71.03;;
74260;Laerm;62630;55.874;37.516;2023-04-24T04:06:03;65.64;55.93;74.59;;
74260;Laerm;62630;55.874;37.516;2023-04-24T04:08:28;62.79;52.89;72.75;;
74260;Laerm;62630;55.874;37.516;2023-04-24T04:10:54;64.32;55.00;72.75;;
74260;Laerm;62630;55.874;37.516;2023-04-24T04:13:20;64.93;55.42;74.36;;
74260;Laerm;62630;55.874;37.516;2023-04-24T04:15:57;64.60;54.44;71.30;;
74260;Laerm;62630;55.874;37.516;2023-04-24T04:22:09;63.69;52.48;73.23;;
74260;Laerm;62630;55.874;37.516;2023-04-24T04:24:35;64.88;56.15;73.83;;
74260;Laerm;62630;55.874;37.516;2023-04-24T04:27:04;62.37;53.11;78.80;;
74260;Laerm;62630;55.874;37.516;2023-04-24T04:29:31;65.47;54.35;82.04;;
74260;Laerm;62630;55.874;37.516;2023-04-24T04:31:57;62.68;51.35;71.66;;
74260;Laerm;62630;55.874;37.516;2023-04-24T04:34:22;64.61;55.79;74.79;;
74260;Laerm;62630;55.874;37.516;2023-04-24T04:36:48;66.15;56.38;92.02;;
74260;Laerm;62630;55.874;37.516;2023-04-24T04:39:14;65.04;56.40;81.59;;
74260;Laerm;62630;55.874;37.516;2023-04-24T04:41:40;66.00;53.13;78.85;;
74260;Laerm;62630;55.874;37.516;2023-04-24T04:44:07;61.91;52.56;72.13;;
74260;Laerm;62630;55.874;37.516;2023-04-24T04:46:34;64.60;52.54;71.50;;
74260;Laerm;62630;55.874;37.516;2023-04-24T04:49:00;64.24;52.39;75.05;;
74260;Laerm;62630;55.874;37.516;2023-04-24T04:51:27;64.94;52.95;80.45;;
74260;Laerm;62630;55.874;37.516;2023-04-24T04:53:53;66.20;54.52;82.77;;
74260;Laerm;62630;55.874;37.516;2023-04-24T04:56:18;64.32;56.40;73.10;;
74260;Laerm;62630;55.874;37.516;2023-04-24T04:58:44;63.72;54.22;76.95;;
74260;Laerm;62630;55.874;37.516;2023-04-24T05:01:13;68.04;54.75;79.26;;
74260;Laerm;62630;55.874;37.516;2023-04-24T05:03:39;64.50;55.77;72.15;;
74260;Laerm;62630;55.874;37.516;2023-04-24T05:06:05;65.06;57.02;72.98;;
74260;Laerm;62630;55.874;37.516;2023-04-24T05:08:31;64.45;54.78;71.42;;
74260;Laerm;62630;55.874;37.516;2023-04-24T05:10:56;65.34;55.99;82.60;;
74260;Laerm;62630;55.874;37.516;2023-04-24T05:13:22;64.54;55.74;76.08;;
74260;Laerm;62630;55.874;37.516;2023-04-24T05:15:47;64.53;53.57;81.39;;
74260;Laerm;62630;55.874;37.516;2023-04-24T05:18:13;64.05;54.15;77.89;;
74260;Laerm;62630;55.874;37.516;2023-04-24T05:20:39;63.36;53.50;73.16;;
74260;Laerm;62630;55.874;37.516;2023-04-24T05:23:05;64.47;56.01;71.66;;
74260;Laerm;62630;55.874;37.516;2023-04-24T05:25:30;63.16;51.76;76.94;;
74260;Laerm;62630;55.874;37.516;2023-04-24T05:28:00;65.83;55.35;73.50;;
74260;Laerm;62630;55.874;37.516;2023-04-24T05:30:26;66.87;58.74;74.00;;
74260;Laerm;62630;55.874;37.516;2023-04-24T05:32:51;68.89;53.18;81.39;;
74260;Laerm;62630;55.874;37.516;2023-04-24T05:35:17;67.48;55.81;79.50;;
74260;Laerm;62630;55.874;37.516;2023-04-24T05:37:44;68.18;55.31;83.41;;
74260;Laerm;62630;55.874;37.516;2023-04-24T05:40:10;67.77;54.32;78.53;;
74260;Laerm;62630;55.874;37.516;2023-04-24T05:42:36;68.42;55.61;81.20;;
74260;Laerm;62630;55.874;37.516;2023-04-24T05:45:02;63.67;51.27;74.61;;
74260;Laerm;62630;55.874;37.516;2023-04-24T05:48:10;67.59;55.66;78.79;;
74260;Laerm;62630;55.874;37.516;2023-04-24T05:50:32;66.77;51.65;76.59;;
74260;Laerm;62630;55.874;37.516;2023-04-24T05:52:58;67.92;52.17;82.11;;
74260;Laerm;62630;55.874;37.516;2023-04-24T05:55:24;63.84;53.26;73.06;;
74260;Laerm;62630;55.874;37.516;2023-04-24T05:57:50;65.74;51.24;75.84;;
74260;Laerm;62630;55.874;37.516;2023-04-24T06:00:16;64.69;55.34;72.26;;
74260;Laerm;62630;55.874;37.516;2023-04-24T06:02:44;63.53;53.44;70.43;;
74260;Laerm;62630;55.874;37.516;2023-04-24T06:05:10;63.71;55.88;73.02;;
74260;Laerm;62630;55.874;37.516;2023-04-24T06:07:36;63.58;53.69;78.83;;
74260;Laerm;62630;55.874;37.516;2023-04-24T06:10:02;64.92;56.73;72.45;;
74260;Laerm;62630;55.874;37.516;2023-04-24T06:12:27;65.92;54.84;79.14;;
74260;Laerm;62630;55.874;37.516;2023-04-24T06:14:53;62.24;51.37;69.57;;
74260;Laerm;62630;55.874;37.516;2023-04-24T06:17:20;65.39;55.24;77.93;;
74260;Laerm;62630;55.874;37.516;2023-04-24T06:19:46;64.57;53.67;80.21;;
74260;Laerm;62630;55.874;37.516;2023-04-24T06:22:12;64.95;52.36;82.22;;
74260;Laerm;62630;55.874;37.516;2023-04-24T06:24:37;61.13;52.19;69.70;;
74260;Laerm;62630;55.874;37.516;2023-04-24T06:27:03;63.95;52.89;74.48;;
74260;Laerm;62630;55.874;37.516;2023-04-24T06:29:28;68.51;54.99;81.54;;
74260;Laerm;62630;55.874;37.516;2023-04-24T06:31:54;63.20;52.89;71.11;;
74260;Laerm;62630;55.874;37.516;2023-04-24T06:34:20;62.58;53.90;71.17;;
74260;Laerm;62630;55.874;37.516;2023-04-24T06:36:46;63.26;54.33;75.58;;
74260;Laerm;62630;55.874;37.516;2023-04-24T06:39:13;64.17;51.72;80.09;;
74260;Laerm;62630;55.874;37.516;2023-04-24T06:41:39;65.87;54.64;77.84;;
74260;Laerm;62630;55.874;37.516;2023-04-24T06:44:05;64.39;51.54;76.37;;
74260;Laerm;62630;55.874;37.516;2023-04-24T06:46:31;64.53;53.00;74.47;;
74260;Laerm;62630;55.874;37.516;2023-04-24T06:48:56;62.66;51.63;77.87;;
74260;Laerm;62630;55.874;37.516;2023-04-24T06:51:24;64.13;51.68;74.62;;
74260;Laerm;62630;55.874;37.516;2023-04-24T06:53:54;64.72;52.92;74.51;;
74260;Laerm;62630;55.874;37.516;2023-04-24T06:56:30;61.32;50.20;69.63;;
74260;Laerm;62630;55.874;37.516;2023-04-24T06:58:56;64.92;56.07;72.76;;
74260;Laerm;62630;55.874;37.516;2023-04-24T07:01:21;65.70;52.09;77.32;;
74260;Laerm;62630;55.874;37.516;2023-04-24T07:03:47;66.83;57.09;78.23;;
74260;Laerm;62630;55.874;37.516;2023-04-24T07:06:12;66.08;56.71;75.66;;
74260;Laerm;62630;55.874;37.516;2023-04-24T07:08:38;61.57;51.35;70.56;;
74260;Laerm;62630;55.874;37.516;2023-04-24T07:11:04;62.60;51.49;75.51;;
74260;Laerm;62630;55.874;37.516;2023-04-24T07:13:30;66.98;55.35;86.57;;
74260;Laerm;62630;55.874;37.516;2023-04-24T07:15:59;67.55;52.26;84.71;;
74260;Laerm;62630;55.874;37.516;2023-04-24T07:18:25;62.40;50.78;82.02;;
74260;Laerm;62630;55.874;37.516;2023-04-24T07:20:50;62.30;51.63;73.00;;
74260;Laerm;62630;55.874;37.516;2023-04-24T07:23:17;62.50;53.55;73.85;;
74260;Laerm;62630;55.874;37.516;2023-04-24T07:25:43;61.45;52.60;71.74;;
74260;Laerm;62630;55.874;37.516;2023-04-24T07:28:09;65.17;53.16;76.11;;
74260;Laerm;62630;55.874;37.516;2023-04-24T07:30:35;60.80;51.31;75.15;;
74260;Laerm;62630;55.874;37.516;2023-04-24T07:33:00;68.13;54.98;79.27;;
74260;Laerm;62630;55.874;37.516;2023-04-24T07:35:26;63.31;52.81;71.40;;
74260;Laerm;62630;55.874;37.516;2023-04-24T07:37:54;63.70;53.69;72.78;;
74260;Laerm;62630;55.874;37.516;2023-04-24T07:40:21;64.44;55.06;75.24;;
74260;Laerm;62630;55.874;37.516;2023-04-24T07:42:47;63.06;50.46;75.61;;
74260;Laerm;62630;55.874;37.516;2023-04-24T07:45:17;64.64;52.66;75.80;;
74260;Laerm;62630;55.874;37.516;2023-04-24T07:47:43;64.09;52.04;74.91;;
74260;Laerm;62630;55.874;37.516;2023-04-24T07:50:12;62.93;50.87;73.23;;
74260;Laerm;62630;55.874;37.516;2023-04-24T07:52:39;63.95;54.45;72.45;;
74260;Laerm;62630;55.874;37.516;2023-04-24T07:55:05;63.25;52.71;80.05;;
74260;Laerm;62630;55.874;37.516;2023-04-24T07:57:31;63.04;53.83;71.74;;
74260;Laerm;62630;55.874;37.516;2023-04-24T07:59:56;69.01;52.41;79.75;;
74260;Laerm;62630;55.874;37.516;2023-04-24T08:02:23;66.66;55.36;79.49;;
74260;Laerm;62630;55.874;37.516;2023-04-24T08:04:55;64.55;55.52;77.09;;
74260;Laerm;62630;55.874;37.516;2023-04-24T08:07:24;62.66;54.84;70.69;;
74260;Laerm;62630;55.874;37.516;2023-04-24T08:09:52;68.24;53.26;78.11;;
74260;Laerm;62630;55.874;37.516;2023-04-24T08:12:17;62.19;51.49;72.19;;
74260;Laerm;62630;55.874;37.516;2023-04-24T08:14:50;63.11;55.35;71.22;;
74260;Laerm;62630;55.874;37.516;2023-04-24T08:17:17;64.97;55.11;76.98;;
74260;Laerm;62630;55.874;37.516;2023-04-24T08:19:42;68.94;53.92;79.85;;
74260;Laerm;62630;55.874;37.516;2023-04-24T08:22:13;63.58;54.37;72.24;;
74260;Laerm;62630;55.874;37.516;2023-04-24T08:24:38;64.61;55.01;75.44;;
74260;Laerm;62630;55.874;37.516;2023-04-24T08:27:04;70.67;54.98;80.89;;
74260;Laerm;62630;55.874;37.516;2023-04-24T08:29:30;67.09;56.95;76.75;;
74260;Laerm;62630;55.874;37.516;2023-04-24T08:31:55;64.22;51.55;79.02;;
74260;Laerm;62630;55.874;37.516;2023-04-24T08:34:21;69.69;52.33;86.44;;
74260;Laerm;62630;55.874;37.516;2023-04-24T08:36:47;63.30;52.54;74.26;;
74260;Laerm;62630;55.874;37.516;2023-04-24T08:39:14;64.03;56.22;70.87;;
74260;Laerm;62630;55.874;37.516;2023-04-24T08:41:42;63.50;52.30;73.81;;
74260;Laerm;62630;55.874;37.516;2023-04-24T08:44:25;73.77;52.77;91.90;;
74260;Laerm;62630;55.874;37.516;2023-04-24T08:46:52;63.61;52.79;79.72;;
74260;Laerm;62630;55.874;37.516;2023-04-24T08:49:18;62.28;51.36;72.26;;
74260;Laerm;62630;55.874;37.516;2023-04-24T08:51:48;62.81;51.85;72.29;;
74260;Laerm;62630;55.874;37.516;2023-04-24T08:54:18;63.35;54.22;71.74;;
74260;Laerm;62630;55.874;37.516;2023-04-24T08:56:47;63.69;53.14;79.19;;
74260;Laerm;62630;55.874;37.516;2023-04-24T08:59:14;62.25;51.63;72.70;;
74260;Laerm;62630;55.874;37.516;2023-04-24T09:01:44;66.04;53.55;75.18;;
74260;Laerm;62630;55.874;37.516;2023-04-24T09:04:10;64.14;54.47;75.59;;
74260;Laerm;62630;55.874;37.516;2023-04-24T09:06:38;64.19;52.14;73.15;;
74260;Laerm;62630;55.874;37.516;2023-04-24T09:09:03;63.81;53.18;76.79;;
74260;Laerm;62630;55.874;37.516;2023-04-24T09:11:32;65.26;54.21;77.52;;
74260;Laerm;62630;55.874;37.516;2023-04-24T09:13:58;65.83;54.19;84.65;;
74260;Laerm;62630;55.874;37.516;2023-04-24T09:16:25;64.21;54.02;78.44;;
74260;Laerm;62630;55.874;37.516;2023-04-24T09:18:53;65.29;54.83;78.03;;
74260;Laerm;62630;55.874;37.516;2023-04-24T09:21:21;64.18;55.48;73.31;;
74260;Laerm;62630;55.874;37.516;2023-04-24T09:23:57;64.45;52.25;78.59;;
74260;Laerm;62630;55.874;37.516;2023-04-24T09:26:24;63.36;51.47;78.55;;
74260;Laerm;62630;55.874;37.516;2023-04-24T09:28:50;62.38;52.78;73.83;;
74260;Laerm;62630;55.874;37.516;2023-04-24T09:31:18;65.45;55.06;81.20;;
74260;Laerm;62630;55.874;37.516;2023-04-24T09:34:20;61.80;50.04;72.86;;
74260;Laerm;62630;55.874;37.516;2023-04-24T09:36:46;65.55;55.64;78.60;;
74260;Laerm;62630;55.874;37.516;2023-04-24T09:39:15;71.50;61.00;87.00;;
74260;Laerm;62630;55.874;37.516;2023-04-24T09:41:51;71.27;55.75;81.17;;
74260;Laerm;62630;55.874;37.516;2023-04-24T09:44:27;64.13;51.64;80.42;;
74260;Laerm;62630;55.874;37.516;2023-04-24T09:46:57;62.23;49.98;69.66;;
74260;Laerm;62630;55.874;37.516;2023-04-24T09:49:28;64.73;56.36;78.38;;
74260;Laerm;62630;55.874;37.516;2023-04-24T09:52:08;67.19;56.41;79.67;;
74260;Laerm;62630;55.874;37.516;2023-04-24T09:54:34;63.77;55.44;74.57;;
74260;Laerm;62630;55.874;37.516;2023-04-24T09:57:02;64.74;55.34;79.56;;
74260;Laerm;62630;55.874;37.516;2023-04-24T09:59:28;64.31;54.49;72.95;;
74260;Laerm;62630;55.874;37.516;2023-04-24T10:01:54;63.16;54.13;75.89;;
74260;Laerm;62630;55.874;37.516;2023-04-24T10:04:21;68.51;55.13;83.67;;
74260;Laerm;62630;55.874;37.516;2023-04-24T10:06:48;64.34;51.09;76.63;;
74260;Laerm;62630;55.874;37.516;2023-04-24T10:09:15;64.41;54.86;73.62;;
74260;Laerm;62630;55.874;37.516;2023-04-24T10:11:46;67.50;56.10;91.00;;
74260;Laerm;62630;55.874;37.516;2023-04-24T10:14:14;64.28;54.93;72.34;;
74260;Laerm;62630;55.874;37.516;2023-04-24T10:16:40;63.99;52.91;74.57;;
74260;Laerm;62630;55.874;37.516;2023-04-24T10:19:07;64.47;54.88;72.95;;
74260;Laerm;62630;55.874;37.516;2023-04-24T10:21:34;63.73;51.54;72.73;;
74260;Laerm;62630;55.874;37.516;2023-04-24T10:24:00;64.06;51.21;73.54;;
74260;Laerm;62630;55.874;37.516;2023-04-24T10:26:29;63.08;53.65;70.31;;
74260;Laerm;62630;55.874;37.516;2023-04-24T10:28:57;65.43;53.63;83.00;;
74260;Laerm;62630;55.874;37.516;2023-04-24T10:31:23;64.86;52.73;74.84;;
74260;Laerm;62630;55.874;37.516;2023-04-24T10:33:50;64.45;54.72;75.74;;
74260;Laerm;62630;55.874;37.516;2023-04-24T10:36:17;64.26;54.45;74.41;;
74260;Laerm;62630;55.874;37.516;2023-04-24T10:38:45;64.14;53.99;75.58;;
74260;Laerm;62630;55.874;37.516;2023-04-24T10:41:17;63.61;53.72;74.73;;
74260;Laerm;62630;55.874;37.516;2023-04-24T10:43:48;62.83;53.04;72.81;;
74260;Laerm;62630;55.874;37.516;2023-04-24T10:46:22;62.21;51.48;70.66;;
74260;Laerm;62630;55.874;37.516;2023-04-24T10:48:54;65.90;54.51;82.18;;
74260;Laerm;62630;55.874;37.516;2023-04-24T10:51:22;66.81;54.99;85.88;;
74260;Laerm;62630;55.874;37.516;2023-04-24T10:53:50;64.45;55.51;79.70;;
74260;Laerm;62630;55.874;37.516;2023-04-24T10:56:16;64.55;55.12;73.18;;
74260;Laerm;62630;55.874;37.516;2023-04-24T10:58:50;65.10;54.85;80.59;;
74260;Laerm;62630;55.874;37.516;2023-04-24T11:01:28;63.67;51.40;77.55;;
74260;Laerm;62630;55.874;37.516;2023-04-24T11:03:57;65.50;52.71;90.01;;
74260;Laerm;62630;55.874;37.516;2023-04-24T11:09:02;66.23;54.05;89.49;;
74260;Laerm;62630;55.874;37.516;2023-04-24T11:11:29;65.91;52.38;82.14;;
74260;Laerm;62630;55.874;37.516;2023-04-24T11:19:06;61.61;51.88;70.06;;
74260;Laerm;62630;55.874;37.516;2023-04-24T11:21:46;67.00;53.36;84.92;;
74260;Laerm;62630;55.874;37.516;2023-04-24T11:29:44;66.17;55.53;76.72;;
74260;Laerm;62630;55.874;37.516;2023-04-24T11:34:49;65.01;56.70;77.67;;
74260;Laerm;62630;55.874;37.516;2023-04-24T11:37:16;63.64;51.14;77.01;;
74260;Laerm;62630;55.874;37.516;2023-04-24T11:39:42;66.51;50.71;77.14;;
74260;Laerm;62630;55.874;37.516;2023-04-24T11:42:09;64.36;54.45;82.38;;
74260;Laerm;62630;55.874;37.516;2023-04-24T11:44:35;63.20;55.40;72.73;;
74260;Laerm;62630;55.874;37.516;2023-04-24T11:47:06;69.28;54.31;80.23;;
74260;Laerm;62630;55.874;37.516;2023-04-24T11:49:36;62.99;50.42;72.80;;
74260;Laerm;62630;55.874;37.516;2023-04-24T11:52:05;71.69;58.12;91.59;;
74260;Laerm;62630;55.874;37.516;2023-04-24T11:54:31;63.67;53.98;73.12;;
74260;Laerm;62630;55.874;37.516;2023-04-24T11:56:57;63.87;56.43;69.49;;
74260;Laerm;62630;55.874;37.516;2023-04-24T11:59:22;66.59;56.93;81.28;;
74260;Laerm;62630;55.874;37.516;2023-04-24T12:01:49;63.15;51.27;75.42;;
74260;Laerm;62630;55.874;37.516;2023-04-24T12:04:16;63.62;54.69;71.34;;
74260;Laerm;62630;55.874;37.516;2023-04-24T12:07:01;64.31;53.62;76.43;;
74260;Laerm;62630;55.874;37.516;2023-04-24T12:09:27;61.86;51.82;75.43;;
74260;Laerm;62630;55.874;37.516;2023-04-24T12:11:56;61.47;52.67;72.72;;
74260;Laerm;62630;55.874;37.516;2023-04-24T12:14:24;63.94;53.17;73.26;;
74260;Laerm;62630;55.874;37.516;2023-04-24T12:16:51;63.88;52.91;73.38;;
74260;Laerm;62630;55.874;37.516;2023-04-24T12:19:23;62.97;54.57;71.74;;
74260;Laerm;62630;55.874;37.516;2023-04-24T12:22:05;63.54;51.32;77.68;;
74260;Laerm;62630;55.874;37.516;2023-04-24T12:24:31;63.43;51.23;74.69;;
74260;Laerm;62630;55.874;37.516;2023-04-24T12:26:57;63.21;52.54;73.77;;
74260;Laerm;62630;55.874;37.516;2023-04-24T12:29:25;63.14;52.55;75.40;;
74260;Laerm;62630;55.874;37.516;2023-04-24T12:31:51;65.40;52.98;83.50;;
74260;Laerm;62630;55.874;37.516;2023-04-24T12:34:23;62.82;53.35;74.59;;
74260;Laerm;62630;55.874;37.516;2023-04-24T12:36:52;64.05;54.53;72.66;;
74260;Laerm;62630;55.874;37.516;2023-04-24T12:39:19;63.31;52.45;70.94;;
74260;Laerm;62630;55.874;37.516;2023-04-24T12:41:57;64.49;53.83;77.19;;
74260;Laerm;62630;55.874;37.516;2023-04-24T12:44:33;64.39;54.10;71.31;;
74260;Laerm;62630;55.874;37.516;2023-04-24T12:47:07;64.09;52.36;73.83;;
74260;Laerm;62630;55.874;37.516;2023-04-24T12:49:32;66.21;56.51;79.56;;
74260;Laerm;62630;55.874;37.516;2023-04-24T12:51:58;64.22;54.88;71.49;;
74260;Laerm;62630;55.874;37.516;2023-04-24T12:54:23;62.43;51.44;69.58;;
74260;Laerm;62630;55.874;37.516;2023-04-24T12:56:49;63.08;53.63;71.49;;
74260;Laerm;62630;55.874;37.516;2023-04-24T12:59:15;61.95;50.51;76.94;;
74260;Laerm;62630;55.874;37.516;2023-04-24T13:01:41;63.62;51.63;72.48;;
74260;Laerm;62630;55.874;37.516;2023-04-24T13:04:06;61.95;52.21;71.09;;
74260;Laerm;62630;55.874;37.516;2023-04-24T13:06:35;61.85;51.97;70.75;;
74260;Laerm;62630;55.874;37.516;2023-04-24T13:09:01;63.21;52.88;76.54;;
74260;Laerm;62630;55.874;37.516;2023-04-24T13:11:26;69.24;52.55;92.96;;
74260;Laerm;62630;55.874;37.516;2023-04-24T13:13:52;65.71;52.89;79.34;;
74260;Laerm;62630;55.874;37.516;2023-04-24T13:16:17;61.90;50.81;71.70;;
74260;Laerm;62630;55.874;37.516;2023-04-24T13:18:43;62.10;51.89;72.46;;
74260;Laerm;62630;55.874;37.516;2023-04-24T13:21:08;64.48;54.55;73.28;;
74260;Laerm;62630;55.874;37.516;2023-04-24T13:23:34;67.04;51.62;82.74;;
74260;Laerm;62630;55.874;37.516;2023-04-24T13:26:00;64.16;52.37;75.19;;
74260;Laerm;62630;55.874;37.516;2023-04-24T13:28:26;62.59;51.32;79.33;;
74260;Laerm;62630;55.874;37.516;2023-04-24T13:30:53;62.60;53.45;75.40;;
74260;Laerm;62630;55.874;37.516;2023-04-24T13:33:22;63.68;54.77;74.38;;
74260;Laerm;62630;55.874;37.516;2023-04-24T13:35:47;62.17;52.93;71.85;;
74260;Laerm;62630;55.874;37.516;2023-04-24T13:38:13;61.38;49.19;75.00;;
74260;Laerm;62630;55.874;37.516;2023-04-24T13:40:44;66.52;52.89;79.34;;
74260;Laerm;62630;55.874;37.516;2023-04-24T13:43:10;60.45;52.61;76.21;;
74260;Laerm;62630;55.874;37.516;2023-04-24T13:45:36;62.14;52.96;73.22;;
74260;Laerm;62630;55.874;37.516;2023-04-24T13:48:01;62.78;53.75;70.56;;
74260;Laerm;62630;55.874;37.516;2023-04-24T13:50:28;65.09;54.90;75.63;;
74260;Laerm;62630;55.874;37.516;2023-04-24T13:52:53;63.31;50.51;74.39;;
74260;Laerm;62630;55.874;37.516;2023-04-24T13:55:20;62.44;53.29;77.92;;
74260;Laerm;62630;55.874;37.516;2023-04-24T13:57:49;61.87;54.31;69.32;;
74260;Laerm;62630;55.874;37.516;2023-04-24T14:00:15;62.96;54.71;73.68;;
74260;Laerm;62630;55.874;37.516;2023-04-24T14:02:42;62.54;52.04;70.29;;
74260;Laerm;62630;55.874;37.516;2023-04-24T14:05:08;62.48;52.94;74.28;;